Time;durP1;ratioP1;P1;durP2;ratioP2;P2;SDS_P1;SDS_P2;PMS_P1;PMS_P2;Temp;Humidity;BMP_temperature;BMP_pressure;BME280_temperature;BME280_humidity;BME280_pressure;Samples;Min_cycle;Max_cycle;Signal;HPM_P1;HPM_P2
2021/11/07 00:05:03;;;;;;;0.90;0.60;;;8.80;99.90;;;;;;5053499;28;20254;-72
2021/11/07 00:07:45;;;;;;;0.90;0.60;;;8.80;99.90;;;;;;5053496;28;20177;-73
2021/11/07 00:10:17;;;;;;;1.65;0.80;;;8.80;99.90;;;;;;5053364;28;20258;-73
2021/11/07 00:12:48;;;;;;;0.90;0.73;;;8.80;99.90;;;;;;5053590;28;20173;-74
2021/11/07 00:15:18;;;;;;;2.15;0.73;;;8.80;99.90;;;;;;5053258;28;20169;-73
2021/11/07 00:17:50;;;;;;;0.80;0.50;;;8.70;99.90;;;;;;5053319;28;20189;-74
2021/11/07 00:20:21;;;;;;;5.40;1.60;;;8.60;99.90;;;;;;5053340;28;20227;-73
2021/11/07 00:22:56;;;;;;;1.00;0.77;;;8.50;99.90;;;;;;5053564;28;20652;-72
2021/11/07 00:25:28;;;;;;;0.80;0.50;;;8.50;99.90;;;;;;5053252;28;20199;-72
2021/11/07 00:27:58;;;;;;;2.78;0.98;;;8.50;99.90;;;;;;5052636;28;20180;-73
2021/11/07 00:30:35;;;;;;;1.00;0.60;;;8.40;99.90;;;;;;5053089;28;20201;-73
2021/11/07 00:33:15;;;;;;;0.80;0.50;;;8.40;99.90;;;;;;5053056;28;20168;-73
2021/11/07 00:38:37;;;;;;;3.75;0.98;;;8.30;99.90;;;;;;5049333;28;20208;-72
2021/11/07 00:41:17;;;;;;;0.80;0.50;;;8.40;99.90;;;;;;5052938;28;20213;-74
2021/11/07 00:43:50;;;;;;;0.80;0.40;;;8.40;99.90;;;;;;5053082;28;20314;-72
2021/11/07 00:46:22;;;;;;;1.17;0.88;;;8.40;99.90;;;;;;5052712;28;20219;-72
2021/11/07 00:48:55;;;;;;;1.30;0.85;;;8.40;99.90;;;;;;5052862;28;20173;-71
2021/11/07 00:51:27;;;;;;;0.90;0.60;;;8.40;99.90;;;;;;5052893;28;20204;-73
2021/11/07 00:54:11;;;;;;;0.80;0.50;;;8.40;99.90;;;;;;5052997;28;20180;-73
2021/11/07 00:56:43;;;;;;;0.95;0.70;;;8.30;99.90;;;;;;5052979;28;20177;-72
2021/11/07 00:59:19;;;;;;;1.00;0.70;;;8.20;99.90;;;;;;5052766;28;20188;-73
2021/11/07 01:01:51;;;;;;;2.17;1.55;;;8.10;99.90;;;;;;5052787;28;20231;-73
2021/11/07 01:04:20;;;;;;;1.52;0.80;;;8.10;99.90;;;;;;5052958;28;20173;-73
2021/11/07 01:06:49;;;;;;;0.80;0.65;;;8.00;99.90;;;;;;5052770;28;20263;-73
2021/11/07 01:09:18;;;;;;;1.20;0.80;;;8.00;99.90;;;;;;5052469;28;20259;-72
2021/11/07 01:11:46;;;;;;;1.20;0.70;;;8.00;99.90;;;;;;5091691;22;20285;-65
2021/11/07 01:14:15;;;;;;;1.10;0.50;;;8.00;99.90;;;;;;5091783;28;20208;-65
2021/11/07 01:16:43;;;;;;;0.80;0.50;;;8.00;99.90;;;;;;5092317;28;20180;-62
2021/11/07 01:19:12;;;;;;;5.68;2.22;;;8.00;99.90;;;;;;5092134;28;20206;-58
2021/11/07 01:21:42;;;;;;;0.80;0.50;;;8.00;99.90;;;;;;5073241;28;20181;-65
2021/11/07 01:24:15;;;;;;;1.15;0.60;;;8.10;99.90;;;;;;5091215;28;20203;-63
2021/11/07 01:26:47;;;;;;;1.60;1.30;;;8.10;99.90;;;;;;5091075;28;20195;-61
2021/11/07 01:29:19;;;;;;;1.00;0.80;;;8.10;99.90;;;;;;5091677;28;20175;-64
2021/11/07 01:31:48;;;;;;;0.90;0.65;;;8.00;99.90;;;;;;5091605;28;20219;-65
2021/11/07 01:34:22;;;;;;;0.85;0.55;;;7.90;99.90;;;;;;5091703;28;20426;-66
2021/11/07 01:36:55;;;;;;;2.08;0.63;;;7.90;99.90;;;;;;5091518;28;20278;-66
2021/11/07 01:39:35;;;;;;;0.90;0.70;;;7.90;99.90;;;;;;5092810;28;20178;-66
2021/11/07 01:42:09;;;;;;;0.90;0.80;;;7.90;99.90;;;;;;5095761;28;20171;-66
2021/11/07 01:44:45;;;;;;;0.95;0.80;;;7.90;99.90;;;;;;5095984;28;20559;-67
2021/11/07 01:47:15;;;;;;;1.10;0.80;;;8.00;99.90;;;;;;5095742;28;20663;-66
2021/11/07 01:49:43;;;;;;;3.35;0.88;;;8.00;99.90;;;;;;5095783;28;20191;-66
2021/11/07 01:52:13;;;;;;;0.80;0.50;;;8.10;99.90;;;;;;5096056;28;20199;-66
2021/11/07 01:54:51;;;;;;;1.27;0.75;;;8.10;99.90;;;;;;5095532;28;20180;-66
2021/11/07 01:57:24;;;;;;;4.85;1.10;;;8.20;99.90;;;;;;5095553;28;20551;-64
2021/11/07 01:59:54;;;;;;;3.13;2.53;;;8.20;99.90;;;;;;5095939;28;20631;-66
2021/11/07 02:02:25;;;;;;;3.17;2.75;;;8.30;99.90;;;;;;5095600;28;20207;-66
2021/11/07 02:04:53;;;;;;;1.02;0.70;;;8.30;99.90;;;;;;5095593;28;20179;-67
2021/11/07 02:07:21;;;;;;;0.80;0.50;;;8.20;99.90;;;;;;5095788;28;20635;-66
2021/11/07 02:09:50;;;;;;;0.90;0.70;;;8.20;99.90;;;;;;5095280;28;20183;-65
2021/11/07 02:12:20;;;;;;;1.42;0.90;;;8.30;99.90;;;;;;5095001;28;20269;-66
2021/11/07 02:14:48;;;;;;;1.58;0.63;;;8.30;99.90;;;;;;5095256;28;20247;-66
2021/11/07 02:17:16;;;;;;;1.00;0.60;;;8.40;99.90;;;;;;5095461;28;20209;-65
2021/11/07 02:19:46;;;;;;;2.17;0.70;;;8.40;99.90;;;;;;5095685;28;20270;-66
2021/11/07 02:22:16;;;;;;;0.90;0.73;;;8.40;99.90;;;;;;5095391;28;20207;-66
2021/11/07 02:24:44;;;;;;;1.08;0.98;;;8.40;99.90;;;;;;5095766;28;20186;-65
2021/11/07 02:27:13;;;;;;;0.90;0.80;;;8.40;99.90;;;;;;5094819;28;20222;-65
2021/11/07 02:29:41;;;;;;;1.27;1.17;;;8.40;99.90;;;;;;5095227;28;20186;-66
2021/11/07 02:32:09;;;;;;;0.95;0.77;;;8.50;99.90;;;;;;5095129;28;20737;-65
2021/11/07 02:34:38;;;;;;;0.93;0.60;;;8.50;99.90;;;;;;5077155;28;20667;-66
2021/11/07 02:37:06;;;;;;;0.90;0.75;;;8.50;99.90;;;;;;5094891;28;20187;-66
2021/11/07 02:39:36;;;;;;;0.90;0.75;;;8.50;99.90;;;;;;5095096;28;20187;-64
2021/11/07 02:42:06;;;;;;;5.72;1.00;;;8.40;99.90;;;;;;5094506;28;20184;-67
2021/11/07 02:44:37;;;;;;;1.88;0.68;;;8.40;99.90;;;;;;5094386;28;20183;-65
2021/11/07 02:47:07;;;;;;;1.00;0.80;;;8.50;99.90;;;;;;5094289;28;20199;-65
2021/11/07 02:49:36;;;;;;;2.35;0.73;;;8.50;99.90;;;;;;5094771;28;20176;-66
2021/11/07 02:52:08;;;;;;;0.80;0.50;;;8.60;99.90;;;;;;5097821;28;20233;-64
2021/11/07 02:54:39;;;;;;;1.00;0.60;;;8.60;99.90;;;;;;5097855;28;20194;-64
2021/11/07 02:57:09;;;;;;;1.02;0.60;;;8.60;99.90;;;;;;5097774;28;20182;-64
2021/11/07 02:59:39;;;;;;;1.33;1.23;;;8.60;99.90;;;;;;5097482;28;20621;-64
2021/11/07 03:02:09;;;;;;;1.65;1.55;;;8.60;99.90;;;;;;5097747;28;20635;-66
2021/11/07 03:04:38;;;;;;;14.23;1.88;;;8.60;99.90;;;;;;5098274;28;20227;-65
2021/11/07 03:07:07;;;;;;;0.80;0.50;;;8.60;99.90;;;;;;5096568;28;20249;-65
2021/11/07 03:09:38;;;;;;;0.80;0.45;;;8.60;99.90;;;;;;5095955;28;20187;-65
2021/11/07 03:12:09;;;;;;;0.80;0.50;;;8.60;99.90;;;;;;5094109;28;20277;-66
2021/11/07 03:14:42;;;;;;;0.80;0.40;;;8.60;99.90;;;;;;5094335;28;20175;-65
2021/11/07 03:17:12;;;;;;;1.48;0.70;;;8.60;99.90;;;;;;5094385;28;20178;-64
2021/11/07 03:19:41;;;;;;;1.00;0.85;;;8.60;99.90;;;;;;5094164;28;20590;-64
2021/11/07 03:22:12;;;;;;;1.35;1.20;;;8.60;99.90;;;;;;5094212;28;20221;-64
2021/11/07 03:24:45;;;;;;;0.80;0.50;;;8.60;99.90;;;;;;5094180;28;20615;-66
2021/11/07 03:27:16;;;;;;;0.80;0.50;;;8.60;99.90;;;;;;5093806;28;20207;-65
2021/11/07 03:29:47;;;;;;;0.80;0.50;;;8.60;99.90;;;;;;5076123;28;20558;-66
2021/11/07 03:32:19;;;;;;;2.17;0.63;;;8.70;99.90;;;;;;5093843;28;20562;-66
2021/11/07 03:34:50;;;;;;;0.95;0.50;;;8.70;99.90;;;;;;5094020;28;20188;-66
2021/11/07 03:37:22;;;;;;;0.80;0.50;;;8.70;99.90;;;;;;5095156;28;20171;-65
2021/11/07 03:39:55;;;;;;;2.17;0.93;;;8.70;99.90;;;;;;5095174;28;20174;-66
2021/11/07 03:42:25;;;;;;;0.90;0.50;;;8.80;99.90;;;;;;5077124;28;20225;-64
2021/11/07 03:44:54;;;;;;;0.80;0.50;;;8.80;99.90;;;;;;5095286;28;20187;-64
2021/11/07 03:47:24;;;;;;;0.90;0.80;;;8.80;99.90;;;;;;5101995;28;20213;-64
2021/11/07 03:49:54;;;;;;;1.70;0.70;;;8.80;99.90;;;;;;5098437;28;20171;-65
2021/11/07 03:52:22;;;;;;;0.90;0.68;;;8.80;99.90;;;;;;5097548;28;20215;-65
2021/11/07 03:54:51;;;;;;;0.80;0.50;;;8.80;99.90;;;;;;5097728;28;20656;-64
2021/11/07 03:57:19;;;;;;;1.10;0.80;;;8.80;99.90;;;;;;5097759;28;20191;-64
2021/11/07 03:59:49;;;;;;;0.80;0.50;;;8.70;99.90;;;;;;5096778;28;20679;-65
2021/11/07 04:02:18;;;;;;;1.52;0.65;;;8.60;99.90;;;;;;5095693;28;20211;-65
2021/11/07 04:04:46;;;;;;;3.10;1.40;;;8.60;99.90;;;;;;5099529;28;20180;-64
2021/11/07 04:07:15;;;;;;;2.53;0.93;;;8.60;99.90;;;;;;5103337;28;20195;-65
2021/11/07 04:09:44;;;;;;;1.00;0.68;;;8.50;99.90;;;;;;5094424;28;20185;-66
2021/11/07 04:12:13;;;;;;;1.40;1.30;;;8.50;99.90;;;;;;5092982;28;20211;-66
2021/11/07 04:14:43;;;;;;;1.15;0.60;;;8.40;99.90;;;;;;5093126;28;20187;-65
2021/11/07 04:17:11;;;;;;;0.90;0.70;;;8.40;99.90;;;;;;5093149;28;20187;-66
2021/11/07 04:19:39;;;;;;;0.80;0.50;;;8.40;99.90;;;;;;5093157;28;20183;-66
2021/11/07 04:22:10;;;;;;;1.38;0.80;;;8.40;99.90;;;;;;5092842;28;20618;-67
2021/11/07 04:24:38;;;;;;;1.60;0.63;;;8.40;99.90;;;;;;5092442;28;20601;-64
2021/11/07 04:27:07;;;;;;;0.90;0.60;;;8.40;99.90;;;;;;5074244;28;20230;-66
2021/11/07 04:29:37;;;;;;;1.42;0.82;;;8.40;99.90;;;;;;5092372;28;20195;-65
2021/11/07 04:32:06;;;;;;;0.80;0.50;;;8.40;99.90;;;;;;5092718;28;20674;-64
2021/11/07 04:34:34;;;;;;;1.33;1.00;;;8.50;99.90;;;;;;5092594;28;20237;-66
2021/11/07 04:37:03;;;;;;;1.25;0.93;;;8.50;99.90;;;;;;5074128;28;20276;-66
2021/11/07 04:39:32;;;;;;;0.90;0.63;;;8.50;99.90;;;;;;5074434;28;20655;-66
2021/11/07 04:42:01;;;;;;;0.90;0.60;;;8.50;99.90;;;;;;5092671;28;20191;-66
2021/11/07 04:44:30;;;;;;;0.90;0.60;;;8.50;99.90;;;;;;5092397;28;20191;-63
2021/11/07 04:47:01;;;;;;;1.42;1.05;;;8.50;99.90;;;;;;5092225;28;20695;-66
2021/11/07 04:49:29;;;;;;;0.80;0.50;;;8.50;99.90;;;;;;5092153;28;20252;-66
2021/11/07 04:51:58;;;;;;;1.17;1.08;;;8.50;99.90;;;;;;5092281;28;20278;-64
2021/11/07 04:54:28;;;;;;;0.80;0.50;;;8.50;99.90;;;;;;5074830;28;20682;-65
2021/11/07 04:56:57;;;;;;;0.90;0.73;;;8.40;99.90;;;;;;5092164;28;20614;-65
2021/11/07 04:59:25;;;;;;;1.05;0.65;;;8.40;99.90;;;;;;5092288;28;20191;-67
2021/11/07 05:01:55;;;;;;;0.90;0.70;;;8.40;99.90;;;;;;5091962;28;20191;-66
2021/11/07 05:04:25;;;;;;;1.63;0.70;;;8.40;99.90;;;;;;5092302;28;20196;-66
2021/11/07 05:06:53;;;;;;;1.25;1.05;;;8.50;99.90;;;;;;5091852;28;20175;-66
2021/11/07 05:09:21;;;;;;;0.82;0.60;;;8.40;99.90;;;;;;5091928;28;20180;-66
2021/11/07 05:11:50;;;;;;;1.08;0.88;;;8.50;99.90;;;;;;5091948;28;20260;-66
2021/11/07 05:14:18;;;;;;;1.30;0.90;;;8.50;99.90;;;;;;5092268;28;20172;-66
2021/11/07 05:16:47;;;;;;;0.90;0.60;;;8.60;99.90;;;;;;5073952;28;20632;-67
2021/11/07 05:19:15;;;;;;;1.08;0.65;;;8.60;99.90;;;;;;5091880;28;20667;-65
2021/11/07 05:21:44;;;;;;;1.15;0.98;;;8.70;99.90;;;;;;5091765;28;20652;-67
2021/11/07 05:24:12;;;;;;;2.00;1.60;;;8.80;99.90;;;;;;5091646;28;20214;-65
2021/11/07 05:26:41;;;;;;;0.80;0.50;;;8.80;99.90;;;;;;5091475;28;20198;-66
2021/11/07 05:29:09;;;;;;;0.80;0.50;;;8.80;99.90;;;;;;5092043;28;20560;-65
2021/11/07 05:31:37;;;;;;;1.00;0.73;;;8.80;99.90;;;;;;5091987;28;20182;-64
2021/11/07 05:34:06;;;;;;;0.80;0.50;;;8.80;99.90;;;;;;5091788;28;20218;-65
2021/11/07 05:36:34;;;;;;;0.80;0.50;;;8.80;99.90;;;;;;5091862;28;20187;-63
2021/11/07 05:39:04;;;;;;;1.20;0.60;;;8.90;99.90;;;;;;5091823;28;20168;-65
2021/11/07 05:41:32;;;;;;;0.90;0.50;;;8.90;99.90;;;;;;5091940;28;20579;-64
2021/11/07 05:44:00;;;;;;;0.95;0.65;;;8.90;99.90;;;;;;5092548;28;20225;-64
2021/11/07 05:46:28;;;;;;;1.30;0.70;;;9.00;99.90;;;;;;5092638;28;20191;-65
2021/11/07 05:48:57;;;;;;;0.90;0.60;;;9.00;99.90;;;;;;5092895;28;20245;-65
2021/11/07 05:51:25;;;;;;;1.00;0.70;;;9.10;99.90;;;;;;5093043;28;20180;-65
2021/11/07 05:53:59;;;;;;;1.40;0.70;;;9.10;99.90;;;;;;5091979;28;20207;-63
2021/11/07 05:56:28;;;;;;;1.38;0.75;;;9.10;99.90;;;;;;5092155;28;20632;-65
2021/11/07 05:58:58;;;;;;;0.90;0.70;;;9.10;99.90;;;;;;5092163;28;20179;-65
2021/11/07 06:01:26;;;;;;;0.80;0.50;;;9.10;99.90;;;;;;5092002;28;20171;-65
2021/11/07 06:03:54;;;;;;;0.90;0.60;;;9.10;99.90;;;;;;5091811;28;20236;-65
2021/11/07 06:06:22;;;;;;;0.80;0.60;;;9.10;99.90;;;;;;5091744;28;20537;-65
2021/11/07 06:08:51;;;;;;;3.90;0.65;;;9.00;99.90;;;;;;5091477;28;20195;-66
2021/11/07 06:11:20;;;;;;;1.23;0.82;;;9.10;99.90;;;;;;5091676;28;20199;-64
2021/11/07 06:13:50;;;;;;;0.95;0.55;;;9.20;99.90;;;;;;5091484;28;20243;-65
2021/11/07 06:16:18;;;;;;;0.80;0.52;;;9.20;99.90;;;;;;5091162;28;20175;-62
2021/11/07 06:18:46;;;;;;;0.93;0.82;;;9.20;99.90;;;;;;5090808;28;20180;-63
2021/11/07 06:21:15;;;;;;;0.90;0.60;;;9.20;99.90;;;;;;5091065;28;20233;-65
2021/11/07 06:23:46;;;;;;;0.90;0.60;;;9.20;99.90;;;;;;5091263;28;20203;-64
2021/11/07 06:26:14;;;;;;;1.52;0.70;;;9.20;99.90;;;;;;5093155;28;20191;-64
2021/11/07 06:28:42;;;;;;;0.80;0.50;;;9.20;99.90;;;;;;5094989;28;20733;-65
2021/11/07 06:31:12;;;;;;;1.13;0.65;;;9.30;99.90;;;;;;5095800;28;20184;-65
2021/11/07 06:33:41;;;;;;;2.03;0.60;;;9.30;99.90;;;;;;5081027;28;20222;-65
2021/11/07 06:36:09;;;;;;;1.02;0.93;;;9.30;99.90;;;;;;5080524;28;20203;-64
2021/11/07 06:38:37;;;;;;;2.63;0.95;;;9.30;99.90;;;;;;5099586;28;20172;-64
2021/11/07 06:41:05;;;;;;;1.33;0.60;;;9.30;99.90;;;;;;5096968;28;20653;-66
2021/11/07 06:43:34;;;;;;;0.90;0.60;;;9.20;99.90;;;;;;5094744;28;20210;-66
2021/11/07 06:46:02;;;;;;;0.80;0.60;;;9.30;99.90;;;;;;5095244;28;20176;-65
2021/11/07 06:48:32;;;;;;;2.38;0.80;;;9.30;99.90;;;;;;5094773;28;20195;-64
2021/11/07 06:51:01;;;;;;;1.10;0.77;;;9.20;99.90;;;;;;5095668;28;20550;-64
2021/11/07 06:53:29;;;;;;;3.60;0.70;;;9.20;99.90;;;;;;5096527;28;20225;-62
2021/11/07 06:55:58;;;;;;;0.80;0.50;;;9.10;99.90;;;;;;5079194;28;20644;-64
2021/11/07 06:58:26;;;;;;;0.80;0.50;;;9.00;99.90;;;;;;5097082;28;20302;-64
2021/11/07 07:00:54;;;;;;;0.90;0.60;;;8.90;99.90;;;;;;5096100;28;20171;-65
2021/11/07 07:03:22;;;;;;;0.80;0.50;;;8.90;99.90;;;;;;5094969;28;20256;-63
2021/11/07 07:05:52;;;;;;;1.35;0.95;;;8.90;99.90;;;;;;5094608;28;20581;-64
2021/11/07 07:08:23;;;;;;;0.85;0.50;;;8.90;99.90;;;;;;5094409;28;20195;-64
2021/11/07 07:10:55;;;;;;;0.80;0.50;;;8.90;99.90;;;;;;5112167;22;20243;-65
2021/11/07 07:13:28;;;;;;;0.90;0.50;;;8.90;99.90;;;;;;5088950;28;20218;-68
2021/11/07 07:16:09;;;;;;;0.80;0.50;;;8.90;99.90;;;;;;5094876;28;20179;-66
2021/11/07 07:18:48;;;;;;;1.13;0.70;;;8.90;99.90;;;;;;5094733;28;20194;-66
2021/11/07 07:21:27;;;;;;;2.22;0.98;;;8.90;99.90;;;;;;5094818;28;20190;-65
2021/11/07 07:24:26;;;;;;;0.80;0.50;;;9.00;99.90;;;;;;5094751;28;20607;-66
2021/11/07 07:27:03;;;;;;;1.73;0.80;;;9.00;99.90;;;;;;5094915;28;20588;-64
2021/11/07 07:29:49;;;;;;;1.52;0.75;;;9.10;99.90;;;;;;5093668;28;20455;-65
2021/11/07 07:32:38;;;;;;;1.20;0.60;;;9.10;99.90;;;;;;5094696;28;20207;-65
2021/11/07 07:35:07;;;;;;;1.25;0.77;;;9.10;99.90;;;;;;5094382;28;20206;-64
2021/11/07 07:37:37;;;;;;;0.80;0.50;;;9.10;99.90;;;;;;5091381;28;20201;-65
2021/11/07 07:40:08;;;;;;;1.77;0.90;;;9.20;99.90;;;;;;5093946;28;20180;-66
2021/11/07 07:42:36;;;;;;;0.80;0.50;;;9.30;99.90;;;;;;5093980;28;20252;-66
2021/11/07 07:45:07;;;;;;;2.80;2.20;;;9.30;99.90;;;;;;5094233;28;20176;-65
2021/11/07 07:47:36;;;;;;;1.00;0.50;;;9.20;99.90;;;;;;5094204;28;20188;-65
2021/11/07 07:50:05;;;;;;;0.90;0.50;;;9.10;99.90;;;;;;5093967;28;20191;-66
2021/11/07 07:52:34;;;;;;;1.35;0.80;;;9.00;99.90;;;;;;5094030;28;20207;-65
2021/11/07 07:55:08;;;;;;;1.20;0.80;;;9.00;99.90;;;;;;5093880;28;20675;-64
2021/11/07 07:57:36;;;;;;;1.00;0.60;;;9.00;99.90;;;;;;5093854;28;20203;-65
2021/11/07 08:00:06;;;;;;;1.00;0.60;;;9.10;99.90;;;;;;5094104;28;20241;-65
2021/11/07 08:02:39;;;;;;;0.90;0.50;;;9.10;99.90;;;;;;5093958;28;20207;-65
2021/11/07 08:05:07;;;;;;;1.35;0.70;;;9.20;99.90;;;;;;5093907;28;20247;-66
2021/11/07 08:07:36;;;;;;;1.40;1.30;;;9.20;99.90;;;;;;5093822;28;20176;-66
2021/11/07 08:10:05;;;;;;;0.80;0.40;;;9.20;99.90;;;;;;5093980;28;20191;-66
2021/11/07 08:12:34;;;;;;;3.20;1.63;;;9.20;99.90;;;;;;5093823;28;20219;-67
2021/11/07 08:15:03;;;;;;;0.80;0.50;;;9.20;99.90;;;;;;5093743;28;20209;-66
2021/11/07 08:17:32;;;;;;;1.30;0.60;;;9.30;99.90;;;;;;5093791;28;20652;-66
2021/11/07 08:20:03;;;;;;;0.90;0.50;;;9.30;99.90;;;;;;5093854;28;20227;-64
2021/11/07 08:22:31;;;;;;;0.80;0.50;;;9.30;99.90;;;;;;5093806;28;20231;-67
2021/11/07 08:25:05;;;;;;;0.80;0.50;;;9.40;99.90;;;;;;5093731;28;20549;-67
2021/11/07 08:27:35;;;;;;;0.90;0.60;;;9.50;99.90;;;;;;5093804;28;20890;-66
2021/11/07 08:30:04;;;;;;;2.17;0.80;;;9.50;99.90;;;;;;5093750;28;20199;-66
2021/11/07 08:32:32;;;;;;;0.80;0.50;;;9.60;99.90;;;;;;5093772;28;20211;-67
2021/11/07 08:35:01;;;;;;;0.80;0.50;;;9.80;99.90;;;;;;5094041;28;20422;-65
2021/11/07 08:37:34;;;;;;;0.90;0.60;;;9.90;99.90;;;;;;5093880;28;20215;-64
2021/11/07 08:40:07;;;;;;;1.15;0.63;;;10.00;99.90;;;;;;5093840;28;20553;-64
2021/11/07 08:42:38;;;;;;;0.80;0.50;;;10.00;99.90;;;;;;5093781;28;20203;-65
2021/11/07 09:01:56;;;;;;;2.60;1.07;;;10.30;99.90;;;;;;5093204;28;20420;-65
2021/11/07 09:04:26;;;;;;;0.80;0.50;;;10.40;99.90;;;;;;5094007;28;20496;-67
2021/11/07 09:07:16;;;;;;;1.00;0.80;;;10.50;99.90;;;;;;5093233;28;20405;-68
2021/11/07 09:09:45;;;;;;;2.23;0.60;;;10.40;99.90;;;;;;5091959;28;20458;-71
2021/11/07 09:12:13;;;;;;;0.80;0.50;;;10.40;99.90;;;;;;5092947;28;20472;-66
2021/11/07 09:14:43;;;;;;;1.43;0.80;;;10.40;99.90;;;;;;5092675;28;20974;-65
2021/11/07 09:17:14;;;;;;;1.03;0.60;;;10.50;99.90;;;;;;5093002;28;20410;-66
2021/11/07 09:19:44;;;;;;;0.97;0.60;;;10.50;99.90;;;;;;5092734;28;20406;-68
2021/11/07 09:22:16;;;;;;;0.80;0.50;;;10.60;99.90;;;;;;5092446;28;20444;-65
2021/11/07 09:24:49;;;;;;;0.80;0.40;;;10.60;99.90;;;;;;5093087;28;20428;-67
2021/11/07 09:27:23;;;;;;;0.90;0.50;;;10.50;99.90;;;;;;5092600;28;20826;-66
2021/11/07 09:30:01;;;;;;;0.87;0.53;;;10.50;99.90;;;;;;5092227;28;20477;-65
2021/11/07 09:32:50;;;;;;;0.80;0.50;;;10.50;99.90;;;;;;5092908;28;20455;-67
2021/11/07 09:35:37;;;;;;;0.90;0.50;;;10.60;99.90;;;;;;5092606;28;20428;-66
2021/11/07 09:38:08;;;;;;;0.80;0.40;;;10.70;99.90;;;;;;5092484;28;20963;-68
2021/11/07 09:40:39;;;;;;;0.80;0.40;;;10.70;99.90;;;;;;5092651;28;20870;-65
2021/11/07 09:46:08;;;;;;;0.90;0.50;;;11.00;99.90;;;;;;5092581;28;20433;-66
2021/11/07 09:48:39;;;;;;;0.80;0.50;;;11.20;99.90;;;;;;5092307;28;20450;-67
2021/11/07 09:51:17;;;;;;;0.80;0.53;;;11.10;99.90;;;;;;5092611;28;20453;-65
2021/11/07 09:53:48;;;;;;;0.90;0.63;;;11.10;99.90;;;;;;5092441;28;20437;-68
2021/11/07 09:56:17;;;;;;;0.90;0.60;;;11.30;99.90;;;;;;5091268;28;20520;-66
2021/11/07 09:58:47;;;;;;;0.80;0.50;;;11.10;99.90;;;;;;5092214;28;20953;-68
2021/11/07 10:01:18;;;;;;;1.00;0.77;;;11.00;99.90;;;;;;5094895;28;20392;-65
2021/11/07 10:03:47;;;;;;;0.80;0.50;;;11.00;99.90;;;;;;5096816;28;20443;-65
2021/11/07 10:06:29;;;;;;;1.03;0.80;;;11.10;99.90;;;;;;5095940;28;20525;-65
2021/11/07 10:08:59;;;;;;;0.90;0.73;;;11.30;99.90;;;;;;5096115;28;20885;-65
2021/11/07 10:11:32;;;;;;;0.80;0.50;;;11.60;99.90;;;;;;5096081;28;20469;-66
2021/11/07 10:14:06;;;;;;;1.07;0.60;;;11.90;99.90;;;;;;5096387;28;20448;-66
2021/11/07 10:16:41;;;;;;;0.80;0.40;;;12.00;99.90;;;;;;5095834;28;20412;-66
2021/11/07 10:19:27;;;;;;;0.90;0.50;;;11.80;99.90;;;;;;5096045;28;20405;-66
2021/11/07 10:21:59;;;;;;;1.20;0.80;;;11.60;99.90;;;;;;5095851;28;20425;-68
2021/11/07 10:24:30;;;;;;;0.80;0.50;;;11.30;99.90;;;;;;5096238;28;20433;-65
2021/11/07 10:27:00;;;;;;;0.87;0.60;;;11.10;99.90;;;;;;5096253;28;20421;-66
2021/11/07 10:29:33;;;;;;;0.80;0.50;;;11.10;99.90;;;;;;5095754;28;20376;-67
2021/11/07 10:32:10;;;;;;;1.00;0.50;;;11.20;99.90;;;;;;5095637;28;20401;-69
2021/11/07 10:40:49;;;;;;;0.80;0.50;;;11.20;99.90;;;;;;5013494;28;20937;-67
2021/11/07 10:46:30;;;;;;;0.80;0.47;;;10.80;99.90;;;;;;5095013;28;20441;-66
2021/11/07 10:52:21;;;;;;;0.80;0.50;;;10.70;99.90;;;;;;5095572;28;20439;-66
2021/11/07 10:54:50;;;;;;;0.80;0.50;;;10.70;99.90;;;;;;5095511;28;20475;-67
2021/11/07 10:57:20;;;;;;;0.80;0.50;;;10.80;99.90;;;;;;5095549;28;20759;-67
2021/11/07 11:00:15;;;;;;;0.80;0.50;;;10.70;99.90;;;;;;5085828;28;20860;-66
2021/11/07 11:02:46;;;;;;;0.80;0.50;;;10.70;99.90;;;;;;5068564;28;20511;-65
2021/11/07 11:05:19;;;;;;;0.90;0.67;;;10.60;99.90;;;;;;5074850;28;20536;-65
2021/11/07 11:07:57;;;;;;;0.80;0.50;;;10.50;99.90;;;;;;5075227;28;20418;-65
2021/11/07 11:10:31;;;;;;;0.80;0.40;;;10.30;99.90;;;;;;5075477;28;20763;-67
2021/11/07 11:13:03;;;;;;;0.80;0.40;;;10.10;99.90;;;;;;5074821;28;20469;-65
2021/11/07 11:15:38;;;;;;;0.80;0.50;;;10.00;99.90;;;;;;5075663;28;20415;-67
2021/11/07 11:26:59;;;;;;;0.80;0.50;;;9.40;99.90;;;;;;5033873;28;20608;-67
2021/11/07 11:32:30;;;;;;;0.80;0.53;;;9.30;99.90;;;;;;5050368;28;20644;-64
2021/11/07 11:35:02;;;;;;;0.80;0.40;;;9.30;99.90;;;;;;5074895;28;20381;-66
2021/11/07 11:37:41;;;;;;;0.80;0.43;;;9.40;99.90;;;;;;5074411;28;20185;-67
2021/11/07 11:40:14;;;;;;;5.28;0.75;;;9.40;99.90;;;;;;5074438;28;20210;-66
2021/11/07 11:42:47;;;;;;;0.90;0.50;;;9.60;99.90;;;;;;5074481;28;20219;-67
2021/11/07 11:45:20;;;;;;;0.80;0.50;;;9.60;99.90;;;;;;5074116;28;20172;-66
2021/11/07 11:48:11;;;;;;;0.80;0.40;;;9.60;99.90;;;;;;5074388;28;20247;-66
2021/11/07 11:50:54;;;;;;;0.80;0.50;;;9.50;99.90;;;;;;5074437;28;20831;-66
2021/11/07 11:53:41;;;;;;;0.80;0.40;;;9.50;99.90;;;;;;5074115;28;20219;-68
2021/11/07 11:56:25;;;;;;;1.10;1.00;;;9.40;99.90;;;;;;5074262;28;20188;-67
2021/11/07 11:58:58;;;;;;;1.60;1.17;;;9.30;99.90;;;;;;5074257;28;20690;-67
2021/11/07 12:01:30;;;;;;;0.80;0.40;;;9.30;99.90;;;;;;5073935;28;20176;-68
2021/11/07 12:04:11;;;;;;;0.80;0.45;;;9.20;99.90;;;;;;5073940;28;20204;-67
2021/11/07 12:06:46;;;;;;;1.00;0.70;;;9.20;99.90;;;;;;5073805;28;20172;-65
2021/11/07 12:12:09;;;;;;;0.80;0.50;;;9.30;99.90;;;;;;5072470;28;20259;-66
2021/11/07 12:15:00;;;;;;;0.80;0.50;;;9.40;99.90;;;;;;5074670;28;20658;-67
2021/11/07 12:17:33;;;;;;;0.90;0.50;;;9.60;99.90;;;;;;5074122;28;20172;-69
2021/11/07 12:20:21;;;;;;;0.90;0.60;;;9.80;99.90;;;;;;5073891;28;20517;-68
2021/11/07 12:23:13;;;;;;;0.80;0.45;;;10.10;99.90;;;;;;5073126;28;20212;-68
2021/11/07 12:25:44;;;;;;;0.80;0.50;;;10.30;99.90;;;;;;5073961;28;20184;-68
2021/11/07 12:28:13;;;;;;;0.80;0.50;;;10.10;99.90;;;;;;5073903;28;20752;-68
2021/11/07 12:30:41;;;;;;;0.90;0.40;;;10.00;99.90;;;;;;5073779;28;20756;-69
2021/11/07 12:33:13;;;;;;;0.80;0.40;;;10.20;99.90;;;;;;5073696;28;20439;-68
2021/11/07 12:35:48;;;;;;;0.90;0.60;;;10.30;99.90;;;;;;5073490;28;20415;-66
2021/11/07 12:41:20;;;;;;;0.90;0.50;;;10.60;99.90;;;;;;5073380;28;20435;-68
2021/11/07 12:43:50;;;;;;;0.80;0.50;;;10.40;99.90;;;;;;5073599;28;20806;-69
2021/11/07 12:46:43;;;;;;;0.80;0.40;;;10.60;99.90;;;;;;5073409;28;20407;-67
2021/11/07 12:49:22;;;;;;;0.80;0.50;;;10.80;99.90;;;;;;5073718;28;20385;-67
2021/11/07 12:51:53;;;;;;;0.80;0.50;;;10.90;99.90;;;;;;5073430;28;20454;-68
2021/11/07 12:54:29;;;;;;;1.23;0.50;;;10.90;99.90;;;;;;5073157;28;20760;-66
2021/11/07 12:57:02;;;;;;;0.90;0.60;;;11.00;99.90;;;;;;5072893;28;20906;-66
2021/11/07 12:59:33;;;;;;;1.20;0.97;;;10.90;99.90;;;;;;5073584;28;20720;-67
2021/11/07 13:02:23;;;;;;;0.90;0.70;;;10.80;99.90;;;;;;5072868;28;20433;-67
2021/11/07 13:04:56;;;;;;;0.80;0.47;;;10.90;99.90;;;;;;5072740;28;20418;-66
2021/11/07 13:07:28;;;;;;;0.80;0.50;;;10.90;99.90;;;;;;5072721;28;20415;-67
2021/11/07 13:10:00;;;;;;;0.80;0.40;;;10.90;99.90;;;;;;5072944;28;20402;-69
2021/11/07 13:12:35;;;;;;;0.80;0.50;;;10.80;99.90;;;;;;5101184;22;20486;-77
2021/11/07 13:21:07;;;;;;;0.80;0.40;;;10.40;99.90;;;;;;5070132;28;20439;-74
2021/11/07 13:23:54;;;;;;;0.80;0.60;;;10.30;99.90;;;;;;5088552;28;20905;-76
2021/11/07 13:35:07;;;;;;;0.80;0.50;;;10.30;99.90;;;;;;5072569;28;20521;-73
2021/11/07 13:37:40;;;;;;;0.80;0.50;;;10.10;99.90;;;;;;5072648;28;20430;-73
2021/11/07 13:40:14;;;;;;;0.80;0.50;;;10.10;99.90;;;;;;5054854;28;20491;-74
2021/11/07 13:42:43;;;;;;;0.80;0.40;;;10.10;99.90;;;;;;5073398;28;20460;-74
2021/11/07 13:45:21;;;;;;;0.80;0.50;;;10.00;99.90;;;;;;5073625;28;20427;-75
2021/11/07 13:47:50;;;;;;;1.08;0.90;;;9.80;99.90;;;;;;5073600;28;20232;-76
2021/11/07 13:50:23;;;;;;;0.80;0.50;;;9.60;99.90;;;;;;5076126;28;20181;-73
2021/11/07 13:52:53;;;;;;;0.80;0.50;;;9.60;99.90;;;;;;5077384;28;20542;-76
2021/11/07 13:55:25;;;;;;;0.90;0.77;;;9.50;99.90;;;;;;5056796;28;20673;-73
2021/11/07 13:57:53;;;;;;;0.80;0.40;;;9.60;99.90;;;;;;5073399;28;20261;-73
2021/11/07 14:00:26;;;;;;;0.90;0.50;;;9.60;99.90;;;;;;5074006;28;20176;-73
2021/11/07 14:02:58;;;;;;;0.80;0.50;;;9.60;99.90;;;;;;5077438;28;20187;-73
2021/11/07 14:05:26;;;;;;;1.00;0.70;;;9.70;99.90;;;;;;5061211;28;20196;-74
2021/11/07 14:08:02;;;;;;;0.80;0.60;;;9.70;99.90;;;;;;5082109;28;20666;-75
2021/11/07 14:10:31;;;;;;;0.80;0.50;;;9.90;99.90;;;;;;5079885;28;20242;-72
2021/11/07 14:13:06;;;;;;;0.80;0.60;;;10.20;99.90;;;;;;5059326;28;20212;-73
2021/11/07 14:15:38;;;;;;;1.23;1.02;;;10.40;99.90;;;;;;5072966;28;20742;-74
2021/11/07 14:18:12;;;;;;;0.80;0.50;;;10.50;99.90;;;;;;5072945;28;20181;-74
2021/11/07 14:20:44;;;;;;;0.80;0.40;;;10.40;99.90;;;;;;5073325;28;20492;-75
2021/11/07 14:23:19;;;;;;;0.80;0.40;;;10.30;99.90;;;;;;5072536;28;20418;-73
2021/11/07 14:25:51;;;;;;;0.80;0.50;;;10.20;99.90;;;;;;5072200;28;20421;-73
2021/11/07 14:28:27;;;;;;;0.80;0.50;;;10.10;99.90;;;;;;5073061;28;20403;-74
2021/11/07 14:30:59;;;;;;;0.80;0.50;;;10.00;99.90;;;;;;5072262;28;20441;-72